Time;durP1;ratioP1;P1;durP2;ratioP2;P2;SDS_P1;SDS_P2;PMS_P1;PMS_P2;Temp;Humidity;BMP_temperature;BMP_pressure;BME280_temperature;BME280_humidity;BME280_pressure;Samples;Min_cycle;Max_cycle;Signal;HPM_P1;HPM_P2
2023/02/16 00:01:57;;;;;;;5.90;2.13;;;;;;;15.96;100.00;101177.41;4993787;28;20084;-76
2023/02/16 00:04:28;;;;;;;4.95;1.88;;;;;;;15.82;100.00;101183.22;4993813;28;20042;-77
2023/02/16 00:06:55;;;;;;;5.97;1.63;;;;;;;15.98;100.00;101186.94;4993798;28;20485;-77
2023/02/16 00:09:21;;;;;;;7.05;1.50;;;;;;;15.99;100.00;101174.78;5008751;28;20026;-78
2023/02/16 00:14:37;;;;;;;7.80;2.03;;;;;;;16.29;100.00;101158.91;4997573;28;20085;-78
2023/02/16 00:17:03;;;;;;;6.15;2.10;;;;;;;16.20;100.00;101155.44;5011501;28;20058;-77
2023/02/16 00:19:33;;;;;;;4.47;1.50;;;;;;;16.32;100.00;101154.66;5013141;28;20056;-74
2023/02/16 00:22:00;;;;;;;8.32;1.83;;;;;;;15.99;100.00;101152.72;5028323;28;20038;-73
2023/02/16 00:24:27;;;;;;;9.07;2.33;;;;;;;15.99;100.00;101144.47;5013331;28;20427;-77
2023/02/16 00:26:53;;;;;;;6.07;1.50;;;;;;;16.00;100.00;101137.78;5003961;28;20422;-73
2023/02/16 00:29:21;;;;;;;5.97;2.25;;;;;;;16.05;100.00;101147.81;4993438;28;20031;-76
2023/02/16 00:31:46;;;;;;;3.45;1.48;;;;;;;16.05;100.00;101136.78;4993444;28;20105;-73
2023/02/16 00:34:26;;;;;;;5.93;1.95;;;;;;;16.03;100.00;101141.84;4993412;28;20422;-74
2023/02/16 00:36:52;;;;;;;5.55;1.60;;;;;;;16.05;100.00;101147.81;5000988;28;20088;-77
2023/02/16 00:39:18;;;;;;;5.60;1.88;;;;;;;16.07;100.00;101140.81;5009640;28;20479;-72
2023/02/16 00:41:49;;;;;;;3.50;1.40;;;;;;;16.36;100.00;101136.28;5003795;28;20472;-74
2023/02/16 00:44:42;;;;;;;4.55;1.50;;;;;;;16.40;100.00;101123.44;5012541;28;20068;-72
2023/02/16 00:47:19;;;;;;;4.07;1.63;;;;;;;16.48;100.00;101130.00;5003342;28;20113;-72
2023/02/16 00:49:47;;;;;;;2.40;1.80;;;;;;;16.49;100.00;101115.84;5006697;28;20022;-75
2023/02/16 00:52:28;;;;;;;3.28;1.80;;;;;;;16.53;100.00;101111.22;5006666;28;20022;-73
2023/02/16 00:54:54;;;;;;;3.08;1.33;;;;;;;16.55;100.00;101113.66;4997785;28;20022;-76
2023/02/16 00:57:20;;;;;;;3.05;1.75;;;;;;;16.55;100.00;101100.69;5009270;28;20030;-73
2023/02/16 00:59:49;;;;;;;3.22;1.58;;;;;;;16.30;100.00;101104.56;5015269;28;20104;-73
2023/02/16 01:02:14;;;;;;;2.97;1.70;;;;;;;16.32;100.00;101096.72;4993598;28;20377;-72
2023/02/16 01:04:40;;;;;;;3.38;1.30;;;;;;;16.25;100.00;101097.31;4993010;28;20263;-77
2023/02/16 01:12:43;;;;;;;2.22;1.27;;;;;;;16.27;100.00;101077.69;5000971;28;20031;-75
2023/02/16 01:15:13;;;;;;;4.25;1.85;;;;;;;16.22;100.00;101092.47;4993078;28;20049;-75
2023/02/16 01:17:38;;;;;;;2.85;1.38;;;;;;;16.22;100.00;101080.66;5008808;28;20150;-75
2023/02/16 01:20:14;;;;;;;5.05;1.73;;;;;;;16.22;100.00;101077.88;5001439;28;20504;-76
2023/02/16 01:22:40;;;;;;;2.60;1.77;;;;;;;16.32;100.00;101071.91;4992996;28;20031;-75
2023/02/16 01:25:05;;;;;;;2.72;1.50;;;;;;;16.63;100.00;101074.13;4993157;28;20381;-76
2023/02/16 01:27:32;;;;;;;2.90;1.80;;;;;;;16.53;100.00;101072.63;4992741;28;20073;-76
2023/02/16 01:29:57;;;;;;;3.22;1.77;;;;;;;16.34;100.00;101067.69;4993107;28;20042;-77
2023/02/16 01:32:23;;;;;;;3.28;1.77;;;;;;;16.38;100.00;101067.78;4997684;28;20029;-75
2023/02/16 01:34:49;;;;;;;2.90;1.58;;;;;;;16.36;100.00;101070.09;5007882;28;20029;-78
2023/02/16 01:37:15;;;;;;;3.20;1.75;;;;;;;16.40;100.00;101061.91;5027525;28;20022;-76
2023/02/16 01:39:41;;;;;;;4.53;2.00;;;;;;;16.69;100.00;101061.72;5011870;28;20022;-75
2023/02/16 01:42:29;;;;;;;3.92;2.05;;;;;;;16.36;100.00;101065.38;5012132;28;20507;-71
2023/02/16 01:45:02;;;;;;;4.72;2.33;;;;;;;16.27;100.00;101053.66;5011707;28;20040;-75
2023/02/16 01:47:48;;;;;;;2.63;1.92;;;;;;;16.29;100.00;101059.63;5001519;28;20029;-74
2023/02/16 01:50:27;;;;;;;5.82;2.20;;;;;;;16.31;100.00;101051.00;4993334;28;20034;-72
2023/02/16 01:53:11;;;;;;;5.03;2.30;;;;;;;16.31;100.00;101057.31;5011006;28;20026;-72
2023/02/16 01:55:42;;;;;;;3.05;2.38;;;;;;;16.32;100.00;101049.84;5012246;28;20026;-76
2023/02/16 01:58:19;;;;;;;4.22;2.63;;;;;;;16.33;100.00;101051.50;5005184;28;20105;-76
2023/02/16 02:00:47;;;;;;;4.30;2.63;;;;;;;16.33;100.00;101046.78;5000777;28;20057;-77
2023/02/16 02:06:26;;;;;;;4.60;2.83;;;;;;;16.36;100.00;101043.31;5015925;28;20514;-77
2023/02/16 02:09:02;;;;;;;4.85;3.30;;;;;;;16.41;100.00;101033.22;4999281;28;20045;-73
2023/02/16 02:11:59;;;;;;;4.93;2.92;;;;;;;16.41;100.00;101033.22;4995887;28;20026;-77
2023/02/16 02:14:30;;;;;;;5.13;3.05;;;;;;;16.40;100.00;101028.84;5000892;28;20027;-76
2023/02/16 02:16:59;;;;;;;4.20;3.03;;;;;;;16.42;100.00;101024.59;5015160;28;20037;-77
2023/02/16 02:19:25;;;;;;;5.28;3.33;;;;;;;16.43;100.00;101017.94;5015418;28;20388;-76
2023/02/16 02:25:31;;;;;;;5.00;3.22;;;;;;;16.45;100.00;101023.91;4976538;28;20417;-72
2023/02/16 02:28:11;;;;;;;5.63;3.92;;;;;;;16.48;100.00;101020.47;4989886;28;20520;-72
2023/02/16 02:30:42;;;;;;;6.50;3.75;;;;;;;16.48;100.00;101020.47;4994616;28;20043;-72
2023/02/16 02:33:49;;;;;;;6.15;4.00;;;;;;;16.53;100.00;101019.41;4995813;28;20109;-76
2023/02/16 02:36:32;;;;;;;5.57;4.10;;;;;;;16.49;100.00;101013.78;4995531;28;20591;-78
2023/02/16 02:39:30;;;;;;;5.70;4.03;;;;;;;16.51;100.00;101010.69;5010961;28;20021;-77
2023/02/16 02:42:37;;;;;;;5.05;3.72;;;;;;;16.51;100.00;101005.16;4999097;28;20038;-72
2023/02/16 02:45:15;;;;;;;4.68;3.63;;;;;;;16.56;100.00;101008.50;4995096;28;20030;-75
2023/02/16 02:47:43;;;;;;;5.25;4.07;;;;;;;16.52;100.00;101004.00;4995181;28;20392;-77
2023/02/16 02:50:36;;;;;;;6.78;4.38;;;;;;;16.47;100.00;101010.56;4995125;28;20030;-75
2023/02/16 02:53:05;;;;;;;6.15;3.95;;;;;;;16.50;100.00;101009.88;4995171;28;20072;-72
2023/02/16 03:01:08;;;;;;;4.80;3.80;;;;;;;16.58;100.00;101019.19;5014664;28;20040;-75
2023/02/16 03:03:41;;;;;;;8.10;3.70;;;;;;;16.93;100.00;101027.78;5014510;28;20034;-76
2023/02/16 03:06:16;;;;;;;4.40;3.35;;;;;;;16.75;100.00;101027.22;5011465;28;20040;-77
2023/02/16 03:08:47;;;;;;;3.72;2.85;;;;;;;16.67;100.00;101027.31;4998898;28;20030;-77
2023/02/16 03:14:05;;;;;;;4.43;3.10;;;;;;;16.76;100.00;101031.59;4994781;28;20092;-71
2023/02/16 03:30:52;;;;;;;3.03;2.38;;;;;;;17.30;100.00;101019.34;4994391;28;20072;-78
2023/02/16 03:33:19;;;;;;;3.50;2.20;;;;;;;17.41;100.00;101015.75;5009502;28;20058;-78
2023/02/16 03:35:45;;;;;;;2.80;2.22;;;;;;;17.43;100.00;101010.66;4996073;28;20508;-78
2023/02/16 03:38:12;;;;;;;4.40;2.35;;;;;;;17.13;100.00;101010.22;5001366;28;20042;-73
2023/02/16 03:40:39;;;;;;;2.38;1.90;;;;;;;17.10;100.00;101013.69;4994256;28;20068;-76
2023/02/16 03:43:07;;;;;;;5.53;2.50;;;;;;;17.13;100.00;101015.75;4993990;28;20104;-78
2023/02/16 03:45:36;;;;;;;3.92;2.40;;;;;;;17.45;100.00;101010.31;4994173;28;20436;-78
2023/02/16 03:48:02;;;;;;;3.03;2.30;;;;;;;17.45;100.00;101005.59;4993880;28;20038;-75
2023/02/16 03:50:28;;;;;;;6.95;2.45;;;;;;;17.42;100.00;101002.75;4999085;28;20062;-77
2023/02/16 03:53:07;;;;;;;4.15;2.03;;;;;;;17.47;100.00;100996.97;5010576;28;20469;-77
2023/02/16 03:55:44;;;;;;;2.60;2.17;;;;;;;17.58;100.00;100998.03;5013529;28;20076;-77
2023/02/16 03:58:13;;;;;;;5.90;2.30;;;;;;;17.33;100.00;101005.66;5006427;28;20105;-78
2023/02/16 04:00:39;;;;;;;3.50;2.65;;;;;;;17.35;100.00;100997.81;4993897;28;20084;-77
2023/02/16 04:03:05;;;;;;;4.57;2.78;;;;;;;17.65;100.00;101003.75;4998547;28;20014;-78
2023/02/16 04:05:32;;;;;;;5.30;2.95;;;;;;;17.64;100.00;101001.34;5002577;28;20117;-74
2023/02/16 04:07:58;;;;;;;3.97;2.80;;;;;;;17.53;100.00;100997.50;4993635;28;20038;-77
2023/02/16 04:10:24;;;;;;;5.82;3.35;;;;;;;17.64;100.00;101010.44;4993526;28;20365;-76
2023/02/16 04:12:50;;;;;;;4.95;3.05;;;;;;;17.62;100.00;101006.44;4993660;28;20031;-77
2023/02/16 04:15:19;;;;;;;6.40;3.63;;;;;;;17.32;100.00;101006.81;4993575;28;20026;-77
2023/02/16 04:17:44;;;;;;;5.20;3.35;;;;;;;17.28;100.00;101005.09;4998844;28;20030;-77
2023/02/16 04:20:14;;;;;;;5.22;3.42;;;;;;;17.26;100.00;101010.19;4992873;28;20037;-77
2023/02/16 04:22:40;;;;;;;5.57;3.42;;;;;;;17.30;100.00;101011.06;4993536;28;20027;-77
2023/02/16 07:09:51;;;;;;;8.20;7.35;;;;;;;16.51;100.00;101209.28;5927407;23;20010;-78
2023/02/16 07:12:16;;;;;;;8.02;7.35;;;;;;;16.43;100.00;101201.91;4950357;29;20032;-75
2023/02/16 07:14:42;;;;;;;5.75;5.25;;;;;;;16.54;100.00;101214.09;4955333;29;20063;-77
2023/02/16 07:17:07;;;;;;;5.90;5.50;;;;;;;16.56;100.00;101215.41;4954659;29;20101;-72
2023/02/16 07:19:33;;;;;;;5.78;5.30;;;;;;;16.58;100.00;101213.09;4956052;28;20027;-72
2023/02/16 07:22:00;;;;;;;7.45;6.82;;;;;;;16.56;100.00;101223.66;4955863;28;20042;-72
2023/02/16 07:24:25;;;;;;;7.40;6.88;;;;;;;16.45;100.00;101216.97;4955440;28;20039;-73
2023/02/16 07:26:51;;;;;;;3.40;2.97;;;;;;;16.02;100.00;101220.97;4949936;28;20103;-72
2023/02/16 07:29:17;;;;;;;4.63;4.32;;;;;;;16.11;100.00;101222.84;4943354;29;20031;-72
2023/02/16 07:31:42;;;;;;;5.63;5.22;;;;;;;16.17;100.00;101221.47;4936834;29;20035;-73
2023/02/16 07:34:08;;;;;;;6.50;4.40;;;;;;;16.11;100.00;101220.09;4945544;29;20512;-72
2023/02/16 07:36:33;;;;;;;7.45;6.85;;;;;;;16.36;100.00;101230.03;4955824;29;20485;-75
2023/02/16 07:38:59;;;;;;;6.60;6.10;;;;;;;16.14;100.00;101246.97;4951465;28;20028;-72
2023/02/16 07:41:24;;;;;;;6.15;5.68;;;;;;;15.89;100.00;101241.34;4944967;29;20032;-72
2023/02/16 07:43:50;;;;;;;13.50;12.50;;;;;;;15.93;100.00;101258.81;4946571;29;20035;-72
2023/02/16 07:46:15;;;;;;;11.98;10.98;;;;;;;15.97;100.00;101264.47;4955037;29;20034;-73
2023/02/16 07:48:41;;;;;;;4.35;3.95;;;;;;;16.05;100.00;101264.38;4937560;29;20138;-71
2023/02/16 07:51:08;;;;;;;7.63;5.35;;;;;;;16.19;100.00;101269.63;4955322;29;20493;-77
2023/02/16 07:53:33;;;;;;;4.82;4.43;;;;;;;16.01;100.00;101265.38;4953138;28;20074;-73
2023/02/16 07:55:59;;;;;;;4.43;3.22;;;;;;;16.04;100.00;101271.03;4944234;29;20032;-72
2023/02/16 07:58:28;;;;;;;7.03;4.60;;;;;;;16.06;100.00;101266.00;4955165;28;20553;-72
2023/02/16 08:01:08;;;;;;;10.13;7.57;;;;;;;16.08;100.00;101274.72;4953391;28;20117;-73
2023/02/16 08:03:33;;;;;;;4.93;3.80;;;;;;;16.14;100.00;101282.81;4955098;29;20035;-77
2023/02/16 08:06:00;;;;;;;5.25;4.45;;;;;;;15.99;100.00;101273.19;4938045;28;20102;-73
2023/02/16 08:08:26;;;;;;;7.05;4.90;;;;;;;16.20;100.00;101281.47;4955205;28;20042;-71
2023/02/16 08:10:52;;;;;;;6.10;4.53;;;;;;;16.47;100.00;101288.31;4954848;29;20049;-71
2023/02/16 08:13:17;;;;;;;5.50;3.50;;;;;;;16.52;100.00;101294.44;4954906;29;20114;-71
2023/02/16 08:15:43;;;;;;;4.05;3.65;;;;;;;16.52;100.00;101291.69;4937657;29;20489;-78
2023/02/16 08:18:09;;;;;;;8.55;5.15;;;;;;;16.71;100.00;101301.44;4953874;29;20034;-74
2023/02/16 08:20:35;;;;;;;4.22;2.97;;;;;;;16.48;100.00;101321.13;4949136;28;20035;-72
2023/02/16 08:23:01;;;;;;;9.18;6.20;;;;;;;16.30;100.00;101314.94;4957363;28;20036;-72
2023/02/16 08:25:26;;;;;;;6.07;3.50;;;;;;;16.21;100.00;101329.94;4963507;28;20102;-72
2023/02/16 08:27:52;;;;;;;6.25;4.50;;;;;;;16.16;100.00;101328.19;4961529;28;20393;-74
2023/02/16 08:30:19;;;;;;;4.65;3.72;;;;;;;16.20;100.00;101328.31;4965054;28;20114;-74
2023/02/16 08:32:45;;;;;;;8.38;5.15;;;;;;;16.34;100.00;101334.38;4961889;28;20019;-74
2023/02/16 08:35:11;;;;;;;5.55;3.83;;;;;;;16.40;100.00;101329.44;4961557;28;20138;-74
2023/02/16 08:37:37;;;;;;;7.75;7.00;;;;;;;16.43;100.00;101326.81;4962588;28;20051;-73
2023/02/16 08:40:07;;;;;;;5.00;3.35;;;;;;;16.27;100.00;101336.88;4961363;28;20081;-72
2023/02/16 08:42:32;;;;;;;4.50;2.88;;;;;;;16.44;100.00;101333.94;4959244;28;20058;-75
2023/02/16 08:44:58;;;;;;;5.68;3.40;;;;;;;16.25;100.00;101355.72;4963947;28;20593;-78
2023/02/16 08:47:23;;;;;;;5.05;3.65;;;;;;;16.39;100.00;101358.97;4966202;28;20029;-72
2023/02/16 08:49:49;;;;;;;5.72;5.22;;;;;;;16.33;100.00;101350.13;4961496;28;20031;-74
2023/02/16 08:52:14;;;;;;;5.13;3.95;;;;;;;16.28;100.00;101342.03;4952834;28;20074;-75
2023/02/16 08:54:40;;;;;;;6.53;6.03;;;;;;;16.44;100.00;101335.91;4936320;28;20109;-72
2023/02/16 08:57:06;;;;;;;5.32;3.58;;;;;;;16.41;100.00;101337.41;4956679;28;20109;-73
2023/02/16 08:59:33;;;;;;;12.40;3.55;;;;;;;16.26;100.00;101346.28;4954538;28;20526;-74
2023/02/16 09:01:59;;;;;;;5.05;3.53;;;;;;;16.19;100.00;101357.03;4958706;28;20110;-71
2023/02/16 09:04:28;;;;;;;4.13;3.40;;;;;;;16.28;100.00;101358.59;4941099;28;20147;-71
2023/02/16 09:06:55;;;;;;;5.32;3.80;;;;;;;16.40;100.00;101357.03;4962470;28;20098;-71
2023/02/16 09:09:21;;;;;;;4.50;3.88;;;;;;;16.24;100.00;101356.81;4963858;28;20035;-72
2023/02/16 09:11:47;;;;;;;6.57;5.45;;;;;;;16.22;100.00;101356.38;4963017;28;20043;-71
2023/02/16 09:14:15;;;;;;;7.18;6.57;;;;;;;16.28;100.00;101361.34;4945928;28;20122;-76
2023/02/16 09:16:44;;;;;;;7.88;6.72;;;;;;;16.13;100.00;101350.09;4962709;28;20035;-71
2023/02/16 09:19:15;;;;;;;7.78;7.18;;;;;;;16.39;100.00;101361.72;4965986;28;20039;-74
2023/02/16 09:21:40;;;;;;;7.43;5.43;;;;;;;16.53;100.00;101356.75;4964857;28;20035;-73
2023/02/16 09:24:07;;;;;;;7.38;6.68;;;;;;;16.46;100.00;101364.75;4964436;28;20035;-76
2023/02/16 09:26:37;;;;;;;7.63;6.45;;;;;;;16.49;100.00;101353.06;4965442;28;20424;-74
2023/02/16 09:29:04;;;;;;;6.07;5.47;;;;;;;16.61;100.00;101369.66;4964451;28;20061;-77
2023/02/16 09:31:33;;;;;;;8.05;5.10;;;;;;;16.68;100.00;101374.63;4965285;28;20074;-71
2023/02/16 09:34:09;;;;;;;6.47;5.20;;;;;;;16.67;100.00;101361.19;4964604;28;20029;-72
2023/02/16 09:36:36;;;;;;;7.57;6.32;;;;;;;16.36;100.00;101373.44;4964863;28;20027;-73
2023/02/16 09:39:02;;;;;;;6.82;4.57;;;;;;;16.68;100.00;101365.53;4961596;28;20027;-72
2023/02/16 09:41:54;;;;;;;7.38;4.90;;;;;;;16.64;100.00;101376.47;4937999;28;20394;-74
2023/02/16 09:44:44;;;;;;;10.15;4.55;;;;;;;16.60;100.00;101381.84;4962720;28;20138;-72
2023/02/16 09:47:31;;;;;;;5.85;3.53;;;;;;;16.70;100.00;101393.63;4961989;28;20084;-73
2023/02/16 09:50:05;;;;;;;4.90;4.32;;;;;;;16.69;100.00;101400.25;4959766;28;20038;-71
2023/02/16 09:52:48;;;;;;;6.00;3.75;;;;;;;16.68;100.00;101399.47;4947027;28;20482;-71
2023/02/16 09:55:16;;;;;;;5.70;3.67;;;;;;;16.71;100.00;101406.31;4959783;28;20062;-71
2023/02/16 09:58:02;;;;;;;4.15;3.70;;;;;;;16.62;100.00;101412.69;4966546;28;20045;-75
2023/02/16 10:00:40;;;;;;;5.75;4.57;;;;;;;16.73;100.00;101415.03;4965061;28;20023;-76
2023/02/16 10:03:24;;;;;;;5.40;4.90;;;;;;;16.36;100.00;101412.06;4946665;28;20042;-71
2023/02/16 10:06:05;;;;;;;7.63;6.47;;;;;;;16.29;100.00;101429.13;4944957;28;20386;-72
2023/02/16 10:08:42;;;;;;;4.65;3.80;;;;;;;16.35;100.00;101436.06;4961153;28;20031;-74
2023/02/16 10:11:40;;;;;;;8.27;4.18;;;;;;;16.51;100.00;101443.75;4964623;28;20059;-73
2023/02/16 10:14:31;;;;;;;4.95;3.90;;;;;;;16.42;100.00;101454.03;4961990;28;20039;-76
2023/02/16 10:17:10;;;;;;;6.38;4.85;;;;;;;16.52;100.00;101465.47;4937094;28;20130;-71
2023/02/16 10:20:06;;;;;;;6.88;5.38;;;;;;;16.42;100.00;101465.88;4960265;28;20030;-72
2023/02/16 10:22:37;;;;;;;5.78;5.18;;;;;;;16.40;100.00;101475.63;4960138;28;20102;-70
2023/02/16 10:25:41;;;;;;;6.80;4.10;;;;;;;16.30;100.00;101466.59;4959147;28;20027;-74
2023/02/16 10:28:18;;;;;;;4.82;3.33;;;;;;;16.13;100.00;101468.66;4943344;28;20035;-78
2023/02/16 10:30:57;;;;;;;5.90;3.95;;;;;;;16.21;100.00;101465.03;4960847;28;20027;-71
2023/02/16 10:33:42;;;;;;;4.00;3.60;;;;;;;16.19;100.00;101451.59;4960514;28;20027;-71
2023/02/16 10:36:52;;;;;;;6.15;5.65;;;;;;;16.20;100.00;101449.66;4959795;28;20039;-72
2023/02/16 10:39:38;;;;;;;3.83;3.42;;;;;;;16.54;100.00;101437.56;4875580;29;20628;-76
2023/02/16 10:42:27;;;;;;;4.35;3.60;;;;;;;16.30;100.00;101458.31;4956247;28;20118;-73
2023/02/16 10:45:16;;;;;;;5.80;4.47;;;;;;;16.42;100.00;101465.09;4939236;28;20043;-72
2023/02/16 10:47:44;;;;;;;6.20;5.60;;;;;;;16.35;100.00;101465.59;4965937;28;20042;-72
2023/02/16 10:50:21;;;;;;;5.68;4.95;;;;;;;16.33;100.00;101473.41;4968425;28;20406;-72
2023/02/16 10:52:48;;;;;;;8.00;7.00;;;;;;;16.50;100.00;101462.25;4957205;28;20055;-72
2023/02/16 10:55:15;;;;;;;7.20;6.45;;;;;;;16.53;100.00;101472.59;4970459;28;20481;-71
2023/02/16 10:57:41;;;;;;;5.00;4.30;;;;;;;16.68;100.00;101465.69;4972208;28;20489;-72
2023/02/16 11:00:22;;;;;;;5.78;5.00;;;;;;;16.40;100.00;101468.19;4972644;28;20031;-71
2023/02/16 11:02:52;;;;;;;7.60;6.22;;;;;;;16.34;100.00;101473.06;4951006;28;20023;-72
2023/02/16 11:05:31;;;;;;;6.75;6.03;;;;;;;16.52;100.00;101462.72;4956769;28;20019;-71
2023/02/16 11:08:02;;;;;;;9.82;8.93;;;;;;;16.58;100.00;101474.38;4956294;28;20082;-73
2023/02/16 11:10:47;;;;;;;6.40;5.80;;;;;;;16.79;100.00;101477.16;4963249;28;20039;-70
2023/02/16 11:13:34;;;;;;;6.95;5.15;;;;;;;16.81;100.00;101483.16;4964776;28;20082;-76
2023/02/16 11:16:24;;;;;;;5.85;4.75;;;;;;;16.86;100.00;101482.97;4966203;28;20026;-76
2023/02/16 11:18:58;;;;;;;4.32;3.65;;;;;;;16.91;100.00;101491.81;4963915;28;20122;-71
2023/02/16 11:21:54;;;;;;;5.90;4.38;;;;;;;16.85;100.00;101509.75;4964013;28;20046;-73
2023/02/16 11:24:36;;;;;;;4.28;3.58;;;;;;;16.91;100.00;101511.16;4960640;28;20034;-71
2023/02/16 11:27:22;;;;;;;3.38;2.70;;;;;;;16.94;100.00;101503.34;4962559;28;20055;-77
2023/02/16 11:29:48;;;;;;;3.55;2.80;;;;;;;17.17;100.00;101508.19;4964242;28;20039;-71
2023/02/16 11:32:16;;;;;;;2.75;2.00;;;;;;;17.17;100.00;101505.41;4945456;28;20027;-70
2023/02/16 11:34:49;;;;;;;3.58;2.25;;;;;;;17.04;100.00;101500.16;4964021;28;20019;-71
2023/02/16 11:37:23;;;;;;;4.88;4.40;;;;;;;17.26;100.00;101490.72;4945093;28;20435;-76
2023/02/16 11:40:23;;;;;;;3.90;3.25;;;;;;;17.26;100.00;101488.75;4962749;28;20389;-71
2023/02/16 11:42:54;;;;;;;4.35;3.95;;;;;;;17.46;100.00;101492.63;4964247;28;20106;-76
2023/02/16 11:45:33;;;;;;;3.75;1.70;;;;;;;17.27;100.00;101479.31;4962323;28;20110;-71
2023/02/16 11:48:11;;;;;;;2.35;1.77;;;;;;;17.31;100.00;101474.75;4963379;28;20042;-72
2023/02/16 11:51:04;;;;;;;1.83;1.50;;;;;;;17.47;100.00;101467.41;4974466;28;20456;-72
2023/02/16 11:53:36;;;;;;;3.50;3.20;;;;;;;17.63;100.00;101470.31;4943107;29;20027;-75
2023/02/16 11:56:26;;;;;;;3.90;2.10;;;;;;;17.53;100.00;101467.97;4936051;29;20435;-71
2023/02/16 11:59:20;;;;;;;1.75;1.45;;;;;;;17.34;100.00;101465.75;4946057;29;20419;-78
2023/02/16 12:02:23;;;;;;;1.80;1.30;;;;;;;17.35;100.00;101452.75;4954787;29;20588;-74
2023/02/16 12:05:18;;;;;;;2.35;1.60;;;;;;;17.69;100.00;101455.13;4969898;28;20035;-74
2023/02/16 12:08:02;;;;;;;2.47;1.65;;;;;;;17.59;100.00;101450.03;4918758;29;20047;-76
2023/02/16 12:10:51;;;;;;;1.85;1.55;;;;;;;17.54;100.00;101444.75;4908872;29;20056;-74
2023/02/16 12:13:37;;;;;;;2.50;1.70;;;;;;;17.63;100.00;101445.44;4897852;29;20487;-74
2023/02/16 12:16:21;;;;;;;5.18;1.92;;;;;;;17.53;100.00;101432.06;4914786;29;20028;-77
2023/02/16 12:19:21;;;;;;;3.65;2.88;;;;;;;17.58;100.00;101434.63;4913758;29;20431;-77
2023/02/16 12:21:50;;;;;;;3.92;2.08;;;;;;;17.60;100.00;101429.53;4909350;29;20499;-77
2023/02/16 12:24:40;;;;;;;5.35;4.95;;;;;;;17.83;100.00;101432.69;4916258;29;20546;-77
2023/02/16 12:27:38;;;;;;;2.65;1.73;;;;;;;17.76;100.00;101435.25;4897249;29;20088;-70
2023/02/16 12:30:47;;;;;;;4.13;2.08;;;;;;;17.85;100.00;101435.13;4890483;29;20483;-78
2023/02/16 12:33:25;;;;;;;2.45;2.05;;;;;;;18.01;100.00;101442.38;4888432;29;20736;-76
2023/02/16 12:36:06;;;;;;;3.30;3.00;;;;;;;18.24;100.00;101434.41;4897293;29;20099;-76
2023/02/16 12:38:38;;;;;;;5.55;5.15;;;;;;;17.81;100.00;101448.81;4897417;29;20017;-77
2023/02/16 12:41:27;;;;;;;3.55;2.30;;;;;;;18.26;100.00;101448.69;4895712;29;20037;-72
2023/02/16 12:44:00;;;;;;;2.95;1.63;;;;;;;18.10;100.00;101439.50;4897443;29;20186;-76
2023/02/16 12:46:39;;;;;;;2.47;1.50;;;;;;;17.63;100.00;101436.34;4896033;29;20060;-75
2023/02/16 12:49:26;;;;;;;4.05;1.88;;;;;;;18.22;100.00;101428.44;4897423;29;20029;-77
2023/02/16 12:51:59;;;;;;;2.28;1.30;;;;;;;17.64;100.00;101426.91;4905575;29;20024;-73
2023/02/16 12:54:31;;;;;;;4.05;1.55;;;;;;;17.77;100.00;101427.75;4914912;29;20055;-72
2023/02/16 12:57:06;;;;;;;3.55;1.40;;;;;;;17.82;100.00;101419.22;4919433;29;20550;-76
2023/02/16 12:59:38;;;;;;;2.70;1.27;;;;;;;17.89;100.00;101411.97;4922502;29;20024;-72
2023/02/16 13:02:15;;;;;;;1.98;1.40;;;;;;;18.05;100.00;101423.13;4923361;29;20032;-72
2023/02/16 13:04:46;;;;;;;3.13;2.00;;;;;;;17.87;100.00;101441.13;4922751;29;20032;-74
2023/02/16 13:07:40;;;;;;;1.90;1.17;;;;;;;17.81;100.00;101435.00;4923444;29;20427;-75
2023/02/16 13:10:42;;;;;;;3.55;0.98;;;;;;;17.46;100.00;101432.66;4930259;28;20059;-73
2023/02/16 13:13:13;;;;;;;5.00;1.38;;;;;;;18.04;100.00;101432.59;4942834;28;20110;-76
2023/02/16 13:15:57;;;;;;;1.08;0.90;;;;;;;18.08;100.00;101430.75;4960674;28;20057;-77
2023/02/16 13:18:27;;;;;;;5.43;1.58;;;;;;;18.07;100.00;101431.09;4961212;28;20031;-73
2023/02/16 13:21:02;;;;;;;2.78;1.33;;;;;;;17.84;100.00;101417.75;4948656;28;20023;-71
2023/02/16 13:23:50;;;;;;;5.95;3.05;;;;;;;18.00;100.00;101402.06;4961186;28;20019;-72
2023/02/16 13:26:47;;;;;;;4.57;2.40;;;;;;;18.41;100.00;101382.72;4975483;28;20031;-75
2023/02/16 13:29:32;;;;;;;5.00;2.88;;;;;;;18.72;100.00;101382.06;4963181;28;20082;-76
2023/02/16 13:32:25;;;;;;;4.75;2.78;;;;;;;18.42;100.00;101374.06;4958642;28;20023;-76
2023/02/16 13:34:59;;;;;;;7.88;6.57;;;;;;;18.65;100.00;101368.00;4962822;28;20030;-75
2023/02/16 13:37:48;;;;;;;3.42;2.50;;;;;;;18.75;100.00;101365.56;4959713;28;20039;-72
2023/02/16 13:40:59;;;;;;;3.53;2.20;;;;;;;18.78;100.00;101359.31;4943847;28;20059;-76
2023/02/16 13:43:51;;;;;;;11.70;8.45;;;;;;;19.17;100.00;101361.53;4930925;28;20360;-75
2023/02/16 13:46:30;;;;;;;13.55;10.05;;;;;;;19.09;100.00;101357.75;4959345;28;20039;-77
2023/02/16 13:48:56;;;;;;;15.50;12.23;;;;;;;19.17;100.00;101356.78;4944102;28;20562;-76
2023/02/16 13:51:24;;;;;;;10.07;8.55;;;;;;;19.09;100.00;101364.09;4962146;28;20110;-77
2023/02/16 13:53:59;;;;;;;10.68;7.28;;;;;;;19.18;100.00;101361.16;4948831;28;20037;-76
2023/02/16 13:56:28;;;;;;;7.10;5.03;;;;;;;19.08;100.00;101356.97;4964441;28;20237;-74
2023/02/16 13:58:56;;;;;;;8.37;6.07;;;;;;;19.19;100.00;101346.16;4947526;28;20027;-75
2023/02/16 14:01:32;;;;;;;4.07;2.50;;;;;;;19.30;100.00;101350.00;4946779;28;20114;-76
2023/02/16 14:04:01;;;;;;;4.93;3.88;;;;;;;19.42;100.00;101349.09;4962432;28;20106;-75
2023/02/16 14:06:36;;;;;;;4.25;2.97;;;;;;;19.42;100.00;101338.00;4967327;28;20477;-76
2023/02/16 14:09:11;;;;;;;6.38;3.03;;;;;;;19.63;100.00;101340.53;4963662;28;20458;-75
2023/02/16 14:11:52;;;;;;;3.33;2.22;;;;;;;19.72;100.00;101341.13;4961862;28;20501;-77
2023/02/16 14:14:31;;;;;;;11.98;3.45;;;;;;;19.98;96.94;101342.53;4958987;28;20034;-74
2023/02/16 14:17:17;;;;;;;6.07;2.40;;;;;;;19.94;97.53;101332.13;4945496;28;20114;-75
2023/02/16 14:20:07;;;;;;;8.57;3.30;;;;;;;20.01;98.59;101319.59;4964002;28;20118;-75
2023/02/16 14:22:42;;;;;;;;;;;;;;;20.19;97.54;101318.03;4965518;28;20027;-76
2023/02/16 14:25:21;;;;;;;10.18;4.40;;;;;;;19.79;100.00;101323.88;4966823;28;19910;-76
2023/02/16 14:27:56;;;;;;;6.35;3.08;;;;;;;19.93;100.00;101319.44;4947784;28;20592;-76
2023/02/16 14:30:52;;;;;;;3.58;2.08;;;;;;;20.17;100.00;101318.38;4959299;28;20130;-76
2023/02/16 14:33:33;;;;;;;3.47;2.13;;;;;;;20.09;100.00;101307.50;4955549;28;20031;-73
2023/02/16 14:35:58;;;;;;;3.70;2.60;;;;;;;20.18;99.27;101299.78;4967981;28;20089;-73
2023/02/16 14:38:28;;;;;;;3.97;2.95;;;;;;;20.04;100.00;101296.69;4971915;28;20485;-75
2023/02/16 14:40:55;;;;;;;;;;;;;;;19.88;100.00;101288.44;4960831;28;20023;-76
2023/02/16 14:43:27;;;;;;;3.53;2.20;;;;;;;19.65;100.00;101291.09;4951765;28;19926;-75
2023/02/16 14:46:33;;;;;;;10.63;4.35;;;;;;;19.76;100.00;101286.59;4946943;28;20046;-74
2023/02/16 14:49:29;;;;;;;3.33;1.65;;;;;;;19.85;100.00;101283.59;4959869;28;20042;-75
2023/02/16 14:52:25;;;;;;;9.25;2.70;;;;;;;20.35;100.00;101284.66;4964041;28;20034;-68
2023/02/16 14:55:17;;;;;;;6.05;3.13;;;;;;;20.65;96.09;101265.44;4954882;28;20073;-74
2023/02/16 14:57:49;;;;;;;14.38;5.63;;;;;;;20.32;100.00;101263.16;4958654;28;20043;-73
2023/02/16 15:00:47;;;;;;;2.72;1.77;;;;;;;20.35;100.00;101238.28;4971788;28;20374;-75
2023/02/16 15:03:22;;;;;;;2.72;1.90;;;;;;;20.32;100.00;101232.66;4942233;28;20162;-75
2023/02/16 15:06:01;;;;;;;1.55;1.27;;;;;;;20.75;100.00;101242.59;4944983;28;20046;-75
2023/02/16 15:08:35;;;;;;;3.50;1.55;;;;;;;20.65;100.00;101234.88;4959606;28;20050;-75
2023/02/16 15:11:26;;;;;;;6.93;2.70;;;;;;;20.70;100.00;101229.00;4944613;28;20034;-76
2023/02/16 15:13:53;;;;;;;7.60;2.30;;;;;;;20.90;100.00;101238.91;4933521;28;20077;-74
2023/02/16 15:16:21;;;;;;;10.93;4.20;;;;;;;20.81;100.00;101234.78;4962261;28;20381;-74